< Typhoon 197612 1976 Season Typhoon 197614 >
Typhoon 197613 (BILLIE)
General InformationTrack Information on Google Maps || Disaster Info.ResourceGoogle EarthGE AnimationAtom FeedGeoJSON
Detalied Best Track (Time Zone = UTC)
Year Month Day Hour Lat. Long. Pressure (hPa) Wind (kt) Class Image Chart
1976 8 1 06 9.0 153.0 1004 0 2 -- Chart
1976 8 1 12 10.5 152.0 1006 0 2 -- Chart
1976 8 1 18 12.0 150.0 1006 0 2 -- Chart
1976 8 2 00 12.8 148.8 1006 0 2 -- Chart
1976 8 2 06 13.1 148.0 1004 0 2 -- Chart
1976 8 2 12 13.3 147.5 1004 0 2 -- Chart
1976 8 2 18 13.5 147.0 1004 0 2 -- Chart
1976 8 3 00 13.7 146.5 1000 0 2 -- Chart
1976 8 3 06 14.4 146.4 996 0 2 -- Chart
1976 8 3 12 14.9 146.1 994 0 2 -- Chart
1976 8 3 18 15.4 145.8 992 0 2 -- Chart
1976 8 4 00 15.7 145.2 992 0 9 -- Chart
1976 8 4 06 15.6 144.7 990 0 9 -- Chart
1976 8 4 12 15.4 144.4 990 0 9 -- Chart
1976 8 4 18 15.2 144.1 990 0 9 -- Chart
1976 8 5 00 15.1 143.6 980 0 9 -- Chart
1976 8 5 06 15.2 143.1 980 0 9 -- Chart
1976 8 5 12 15.5 142.6 975 0 9 -- Chart
1976 8 5 18 16.4 141.2 975 0 9 -- Chart
1976 8 6 00 16.8 140.8 970 0 9 -- Chart
1976 8 6 06 17.5 139.4 965 0 9 -- Chart
1976 8 6 12 18.4 138.2 960 0 9 -- Chart
1976 8 6 18 19.3 137.0 950 0 9 -- Chart
1976 8 7 00 20.0 135.7 925 0 9 -- Chart
1976 8 7 06 20.8 134.5 915 0 9 -- Chart
1976 8 7 12 21.6 133.3 920 0 9 -- Chart
1976 8 7 18 22.3 132.2 930 0 9 -- Chart
1976 8 8 00 23.1 131.1 940 0 9 -- Chart
1976 8 8 06 23.5 129.7 945 0 9 -- Chart
1976 8 8 12 23.6 128.4 945 0 9 -- Chart
1976 8 8 18 23.9 127.0 945 0 9 -- Chart
1976 8 9 00 24.2 125.7 945 0 9 -- Chart
1976 8 9 06 24.4 124.5 945 0 9 -- Chart
1976 8 9 12 24.7 123.0 945 0 9 -- Chart
1976 8 9 18 24.9 122.2 955 0 9 -- Chart
1976 8 10 00 25.2 119.8 970 0 9 -- Chart
1976 8 10 06 25.4 118.0 980 0 9 -- Chart
1976 8 10 12 25.5 116.5 985 0 9 -- Chart
1976 8 10 18 26.0 115.0 990 0 2 -- Chart
1976 8 11 00 27.0 114.0 992 0 2 -- Chart
1976 8 11 06 27.5 113.0 996 0 2 -- Chart
1976 8 11 12 28.0 112.0 998 0 2 -- Chart
1976 8 11 18 29.0 111.0 1000 0 2 -- Chart
1976 8 12 00 30.0 110.0 1002 0 6 -- Chart
1976 8 12 06 31.0 109.0 1002 0 6 -- Chart
1976 8 12 12 31.0 108.0 1002 0 6 -- Chart
1976 8 12 18 31.0 107.0 1004 0 6 -- Chart
Japan Meteorological Agency Best Track Data | Correction Date : 1992-10-21
< Typhoon 197612 1976 Season Typhoon 197614 >

Help